sensor_id;sensor_type;location;lat;lon;timestamp;pressure;altitude;pressure_sealevel;temperature;humidity
71770;BME280;59605;52.122;5.420;2022-08-01T00:00:04;101767.38;;;23.18;65.79
71770;BME280;59605;52.122;5.420;2022-08-01T00:02:31;101758.69;;;23.17;65.69
71770;BME280;59605;52.122;5.420;2022-08-01T00:04:58;101763.94;;;23.17;65.79
71770;BME280;59605;52.122;5.420;2022-08-01T00:07:26;101767.50;;;23.16;65.96
71770;BME280;59605;52.122;5.420;2022-08-01T00:09:52;101767.38;;;23.18;65.83
71770;BME280;59605;52.122;5.420;2022-08-01T00:12:19;101767.50;;;23.16;66.13
71770;BME280;59605;52.122;5.420;2022-08-01T00:14:45;101768.34;;;23.17;65.69
71770;BME280;59605;52.122;5.420;2022-08-01T00:17:11;101764.88;;;23.16;65.96
71770;BME280;59605;52.122;5.420;2022-08-01T00:19:38;101765.72;;;23.17;65.80
71770;BME280;59605;52.122;5.420;2022-08-01T00:22:04;101771.94;;;23.16;65.98
71770;BME280;59605;52.122;5.420;2022-08-01T00:24:31;101763.19;;;23.15;65.97
71770;BME280;59605;52.122;5.420;2022-08-01T00:26:58;101766.69;;;23.16;66.04
71770;BME280;59605;52.122;5.420;2022-08-01T00:29:24;101766.69;;;23.16;65.80
71770;BME280;59605;52.122;5.420;2022-08-01T00:32:10;101777.16;;;23.16;66.00
71770;BME280;59605;52.122;5.420;2022-08-01T00:34:37;101769.31;;;23.16;65.92
71770;BME280;59605;52.122;5.420;2022-08-01T00:37:03;101778.94;;;23.15;65.85
71770;BME280;59605;52.122;5.420;2022-08-01T00:39:30;101769.50;;;23.13;65.80
71770;BME280;59605;52.122;5.420;2022-08-01T00:41:56;101767.63;;;23.15;66.00
71770;BME280;59605;52.122;5.420;2022-08-01T00:44:27;101764.19;;;23.14;65.92
71770;BME280;59605;52.122;5.420;2022-08-01T00:46:53;101776.31;;;23.15;66.15
71770;BME280;59605;52.122;5.420;2022-08-01T00:49:20;101767.75;;;23.13;65.81
71770;BME280;59605;52.122;5.420;2022-08-01T00:51:46;101766.81;;;23.14;66.01
71770;BME280;59605;52.122;5.420;2022-08-01T00:54:13;101766.81;;;23.14;65.81
71770;BME280;59605;52.122;5.420;2022-08-01T00:56:42;101766.88;;;23.13;65.95
71770;BME280;59605;52.122;5.420;2022-08-01T00:59:11;101776.44;;;23.14;65.97
71770;BME280;59605;52.122;5.420;2022-08-01T01:01:39;101775.63;;;23.13;65.94
71770;BME280;59605;52.122;5.420;2022-08-01T01:04:12;101784.31;;;23.14;66.03
71770;BME280;59605;52.122;5.420;2022-08-01T01:12:09;101773.00;;;23.13;65.96
71770;BME280;59605;52.122;5.420;2022-08-01T01:14:45;101772.13;;;23.13;65.56
71770;BME280;59605;52.122;5.420;2022-08-01T01:17:20;101779.19;;;23.12;65.76
71770;BME280;59605;52.122;5.420;2022-08-01T01:20:11;101774.88;;;23.11;65.78
71770;BME280;59605;52.122;5.420;2022-08-01T01:22:50;101767.84;;;23.12;65.69
71770;BME280;59605;52.122;5.420;2022-08-01T01:28:17;101773.09;;;23.12;65.75
71770;BME280;59605;52.122;5.420;2022-08-01T01:30:51;101772.25;;;23.11;65.82
71770;BME280;59605;52.122;5.420;2022-08-01T01:33:19;101767.00;;;23.11;65.77
71770;BME280;59605;52.122;5.420;2022-08-01T01:35:52;101773.22;;;23.10;65.60
71770;BME280;59605;52.122;5.420;2022-08-01T01:38:24;101765.34;;;23.10;65.56
71770;BME280;59605;52.122;5.420;2022-08-01T01:40:52;101763.56;;;23.11;65.84
71770;BME280;59605;52.122;5.420;2022-08-01T01:43:20;101767.84;;;23.12;65.63
71770;BME280;59605;52.122;5.420;2022-08-01T01:45:54;101767.09;;;23.10;65.58
71770;BME280;59605;52.122;5.420;2022-08-01T01:48:22;101766.25;;;23.09;65.78
71770;BME280;59605;52.122;5.420;2022-08-01T01:50:51;101774.13;;;23.09;65.53
71770;BME280;59605;52.122;5.420;2022-08-01T01:53:20;101768.06;;;23.09;65.47
71770;BME280;59605;52.122;5.420;2022-08-01T01:55:50;101764.47;;;23.10;65.67
71770;BME280;59605;52.122;5.420;2022-08-01T01:58:19;101772.44;;;23.08;65.44
71770;BME280;59605;52.122;5.420;2022-08-01T02:00:48;101776.75;;;23.09;65.74
71770;BME280;59605;52.122;5.420;2022-08-01T02:03:17;101770.81;;;23.07;65.60
71770;BME280;59605;52.122;5.420;2022-08-01T02:05:45;101778.56;;;23.09;65.54
71770;BME280;59605;52.122;5.420;2022-08-01T02:08:15;101769.00;;;23.08;65.75
71770;BME280;59605;52.122;5.420;2022-08-01T02:10:44;101776.88;;;23.08;65.58
71770;BME280;59605;52.122;5.420;2022-08-01T02:13:36;101775.94;;;23.09;65.42
71770;BME280;59605;52.122;5.420;2022-08-01T02:16:04;101770.81;;;23.07;65.86
71770;BME280;59605;52.122;5.420;2022-08-01T02:18:32;101769.00;;;23.08;65.75
71770;BME280;59605;52.122;5.420;2022-08-01T02:21:00;101774.25;;;23.08;65.68
71770;BME280;59605;52.122;5.420;2022-08-01T02:23:31;101778.66;;;23.07;65.52
71770;BME280;59605;52.122;5.420;2022-08-01T02:26:00;101767.31;;;23.07;65.42
71770;BME280;59605;52.122;5.420;2022-08-01T02:28:43;101776.03;;;23.07;65.55
71770;BME280;59605;52.122;5.420;2022-08-01T02:31:13;101776.88;;;23.08;65.42
71770;BME280;59605;52.122;5.420;2022-08-01T02:33:45;101777.81;;;23.07;65.34
71770;BME280;59605;52.122;5.420;2022-08-01T02:36:16;101780.44;;;23.07;65.34
71770;BME280;59605;52.122;5.420;2022-08-01T02:39:01;101780.44;;;23.07;65.76
71770;BME280;59605;52.122;5.420;2022-08-01T02:41:30;101781.41;;;23.06;65.27
71770;BME280;59605;52.122;5.420;2022-08-01T02:43:59;101777.09;;;23.05;65.59
71770;BME280;59605;52.122;5.420;2022-08-01T02:46:33;101797.13;;;23.06;65.38
71770;BME280;59605;52.122;5.420;2022-08-01T02:49:03;101784.97;;;23.05;65.60
71770;BME280;59605;52.122;5.420;2022-08-01T02:51:31;101779.72;;;23.05;65.67
71770;BME280;59605;52.122;5.420;2022-08-01T02:53:58;101787.59;;;23.05;65.62
71770;BME280;59605;52.122;5.420;2022-08-01T02:56:28;101776.38;;;23.02;65.47
71770;BME280;59605;52.122;5.420;2022-08-01T02:59:07;101778.78;;;23.06;65.62
71770;BME280;59605;52.122;5.420;2022-08-01T03:01:35;101785.78;;;23.05;65.40
71770;BME280;59605;52.122;5.420;2022-08-01T03:04:06;101780.66;;;23.04;65.35
71770;BME280;59605;52.122;5.420;2022-08-01T03:06:33;101774.47;;;23.05;65.64
71770;BME280;59605;52.122;5.420;2022-08-01T03:09:03;101775.44;;;23.04;65.56
71770;BME280;59605;52.122;5.420;2022-08-01T03:11:31;101769.34;;;23.03;65.41
71770;BME280;59605;52.122;5.420;2022-08-01T03:14:01;101766.72;;;23.03;65.60
71770;BME280;59605;52.122;5.420;2022-08-01T03:16:28;101768.50;;;23.02;65.51
71770;BME280;59605;52.122;5.420;2022-08-01T03:18:58;101770.19;;;23.04;65.46
71770;BME280;59605;52.122;5.420;2022-08-01T03:21:27;101771.13;;;23.02;65.23
71770;BME280;59605;52.122;5.420;2022-08-01T03:23:57;101773.75;;;23.02;65.38
71770;BME280;59605;52.122;5.420;2022-08-01T03:26:30;101773.75;;;23.02;65.33
71770;BME280;59605;52.122;5.420;2022-08-01T03:29:02;101784.22;;;23.02;65.28
71770;BME280;59605;52.122;5.420;2022-08-01T03:31:36;101777.34;;;23.01;65.31
71770;BME280;59605;52.122;5.420;2022-08-01T03:34:05;101786.84;;;23.02;65.37
71770;BME280;59605;52.122;5.420;2022-08-01T03:36:32;101782.59;;;23.01;65.40
71770;BME280;59605;52.122;5.420;2022-08-01T03:39:02;101775.53;;;23.02;65.04
71770;BME280;59605;52.122;5.420;2022-08-01T03:41:34;101774.72;;;23.01;65.02
71770;BME280;59605;52.122;5.420;2022-08-01T03:44:07;101777.34;;;23.01;65.13
71770;BME280;59605;52.122;5.420;2022-08-01T03:46:53;101786.97;;;23.01;65.29
71770;BME280;59605;52.122;5.420;2022-08-01T03:49:23;101786.03;;;23.02;65.39
71770;BME280;59605;52.122;5.420;2022-08-01T03:51:52;101782.59;;;23.01;65.35
71770;BME280;59605;52.122;5.420;2022-08-01T03:54:24;101789.59;;;23.01;65.14
71770;BME280;59605;52.122;5.420;2022-08-01T03:56:51;101794.84;;;23.01;65.43
71770;BME280;59605;52.122;5.420;2022-08-01T03:59:19;101794.84;;;23.01;65.17
71770;BME280;59605;52.122;5.420;2022-08-01T04:01:46;101792.34;;;22.99;65.35
71770;BME280;59605;52.122;5.420;2022-08-01T04:04:13;101791.38;;;23.00;65.32
71770;BME280;59605;52.122;5.420;2022-08-01T04:06:41;101787.94;;;23.00;65.37
71770;BME280;59605;52.122;5.420;2022-08-01T04:09:10;101783.53;;;23.00;65.16
71770;BME280;59605;52.122;5.420;2022-08-01T04:11:39;101786.16;;;23.00;65.20
71770;BME280;59605;52.122;5.420;2022-08-01T04:14:06;101781.03;;;22.99;65.09
71770;BME280;59605;52.122;5.420;2022-08-01T04:16:34;101791.38;;;23.00;65.41
71770;BME280;59605;52.122;5.420;2022-08-01T04:19:01;101792.34;;;22.99;65.08
71770;BME280;59605;52.122;5.420;2022-08-01T04:21:29;101793.31;;;22.98;65.12
71770;BME280;59605;52.122;5.420;2022-08-01T04:23:59;101806.41;;;22.98;64.94
71770;BME280;59605;52.122;5.420;2022-08-01T04:26:28;101808.06;;;22.99;64.92
71770;BME280;59605;52.122;5.420;2022-08-01T04:28:56;101812.47;;;22.99;65.19
71770;BME280;59605;52.122;5.420;2022-08-01T04:31:24;101812.47;;;22.99;65.35
71770;BME280;59605;52.122;5.420;2022-08-01T04:33:54;101808.19;;;22.98;65.38
71770;BME280;59605;52.122;5.420;2022-08-01T04:36:23;101810.81;;;22.98;65.09
71770;BME280;59605;52.122;5.420;2022-08-01T04:38:52;101815.22;;;22.97;65.27
71770;BME280;59605;52.122;5.420;2022-08-01T04:41:22;101816.03;;;22.98;65.24
71770;BME280;59605;52.122;5.420;2022-08-01T04:43:49;101822.25;;;22.97;64.94
71770;BME280;59605;52.122;5.420;2022-08-01T04:46:17;101821.28;;;22.98;65.21
71770;BME280;59605;52.122;5.420;2022-08-01T04:48:45;101814.41;;;22.97;65.19
71770;BME280;59605;52.122;5.420;2022-08-01T04:51:16;101824.78;;;22.98;65.19
71770;BME280;59605;52.122;5.420;2022-08-01T04:53:44;101827.38;;;22.98;65.55
71770;BME280;59605;52.122;5.420;2022-08-01T04:56:12;101832.63;;;22.98;65.37
71770;BME280;59605;52.122;5.420;2022-08-01T04:58:40;101831.06;;;22.96;65.24
71770;BME280;59605;52.122;5.420;2022-08-01T05:01:07;101833.69;;;22.96;65.41
71770;BME280;59605;52.122;5.420;2022-08-01T05:03:34;101838.81;;;22.97;65.43
71770;BME280;59605;52.122;5.420;2022-08-01T05:06:04;101850.13;;;22.98;65.56
71770;BME280;59605;52.122;5.420;2022-08-01T05:08:31;101851.09;;;22.97;65.37
71770;BME280;59605;52.122;5.420;2022-08-01T05:10:57;101845.75;;;22.98;65.49
71770;BME280;59605;52.122;5.420;2022-08-01T05:13:24;101847.63;;;22.96;65.69
71770;BME280;59605;52.122;5.420;2022-08-01T05:15:50;101849.31;;;22.97;65.74
71770;BME280;59605;52.122;5.420;2022-08-01T05:18:18;101854.53;;;22.97;65.73
71770;BME280;59605;52.122;5.420;2022-08-01T05:20:54;101843.22;;;22.97;65.53
71770;BME280;59605;52.122;5.420;2022-08-01T05:23:20;101850.13;;;22.98;65.54
71770;BME280;59605;52.122;5.420;2022-08-01T05:26:07;101845.75;;;22.98;65.68
71770;BME280;59605;52.122;5.420;2022-08-01T05:28:34;101846.56;;;22.99;65.61
71770;BME280;59605;52.122;5.420;2022-08-01T05:31:01;101853.59;;;22.98;65.81
71770;BME280;59605;52.122;5.420;2022-08-01T05:33:27;101847.41;;;22.99;65.54
71770;BME280;59605;52.122;5.420;2022-08-01T05:35:53;101852.63;;;22.99;65.84
71770;BME280;59605;52.122;5.420;2022-08-01T05:38:22;101863.13;;;22.99;65.78
71770;BME280;59605;52.122;5.420;2022-08-01T05:40:49;101861.34;;;23.00;65.56
71770;BME280;59605;52.122;5.420;2022-08-01T05:43:15;101867.44;;;23.00;65.54
71770;BME280;59605;52.122;5.420;2022-08-01T05:45:42;101863.13;;;22.99;65.88
71770;BME280;59605;52.122;5.420;2022-08-01T05:48:08;101866.59;;;23.00;65.75
71770;BME280;59605;52.122;5.420;2022-08-01T05:50:35;101855.25;;;22.99;65.83
71770;BME280;59605;52.122;5.420;2022-08-01T05:53:01;101865.75;;;22.99;65.91
71770;BME280;59605;52.122;5.420;2022-08-01T05:55:28;101860.50;;;22.99;65.86
71770;BME280;59605;52.122;5.420;2022-08-01T05:57:54;101863.97;;;23.00;65.65
71770;BME280;59605;52.122;5.420;2022-08-01T06:00:21;101868.38;;;22.99;65.73
71770;BME280;59605;52.122;5.420;2022-08-01T06:02:48;101864.09;;;22.98;65.99
71770;BME280;59605;52.122;5.420;2022-08-01T06:05:15;101865.75;;;22.99;66.06
71770;BME280;59605;52.122;5.420;2022-08-01T06:07:42;101867.53;;;22.99;65.90
71770;BME280;59605;52.122;5.420;2022-08-01T06:10:08;101877.09;;;23.00;65.69
71770;BME280;59605;52.122;5.420;2022-08-01T06:12:35;101877.09;;;23.00;65.73
71770;BME280;59605;52.122;5.420;2022-08-01T06:15:03;101872.66;;;23.00;65.87
71770;BME280;59605;52.122;5.420;2022-08-01T06:17:30;101878.84;;;22.99;65.55
71770;BME280;59605;52.122;5.420;2022-08-01T06:19:57;101875.28;;;23.00;65.79
71770;BME280;59605;52.122;5.420;2022-08-01T06:22:23;101875.28;;;23.00;65.67
71770;BME280;59605;52.122;5.420;2022-08-01T06:24:51;101878.75;;;23.01;66.07
71770;BME280;59605;52.122;5.420;2022-08-01T06:27:18;101871.84;;;23.00;66.46
71770;BME280;59605;52.122;5.420;2022-08-01T06:29:47;101874.59;;;22.98;65.95
71770;BME280;59605;52.122;5.420;2022-08-01T06:32:22;101874.47;;;23.00;66.20
71770;BME280;59605;52.122;5.420;2022-08-01T06:34:53;101873.59;;;22.99;66.01
71770;BME280;59605;52.122;5.420;2022-08-01T06:37:21;101880.53;;;23.00;65.60
71770;BME280;59605;52.122;5.420;2022-08-01T06:39:47;101877.91;;;23.00;65.89
71770;BME280;59605;52.122;5.420;2022-08-01T06:42:15;101887.47;;;23.01;65.87
71770;BME280;59605;52.122;5.420;2022-08-01T06:44:42;101884.84;;;23.01;66.05
71770;BME280;59605;52.122;5.420;2022-08-01T06:47:08;101892.72;;;23.01;65.84
71770;BME280;59605;52.122;5.420;2022-08-01T06:49:34;101895.31;;;23.01;65.92
71770;BME280;59605;52.122;5.420;2022-08-01T06:52:01;101901.41;;;23.02;66.43
71770;BME280;59605;52.122;5.420;2022-08-01T06:54:29;101896.97;;;23.02;66.01
71770;BME280;59605;52.122;5.420;2022-08-01T06:56:56;101894.34;;;23.02;66.66
71770;BME280;59605;52.122;5.420;2022-08-01T06:59:22;101898.66;;;23.04;66.38
71770;BME280;59605;52.122;5.420;2022-08-01T07:01:48;101902.22;;;23.02;66.38
71770;BME280;59605;52.122;5.420;2022-08-01T07:04:15;101901.41;;;23.02;66.40
71770;BME280;59605;52.122;5.420;2022-08-01T07:06:41;101900.56;;;23.01;66.42
71770;BME280;59605;52.122;5.420;2022-08-01T07:09:08;101904.03;;;23.02;67.26
71770;BME280;59605;52.122;5.420;2022-08-01T07:11:39;101900.56;;;23.01;67.18
71770;BME280;59605;52.122;5.420;2022-08-01T07:14:06;101911.78;;;23.04;67.35
71770;BME280;59605;52.122;5.420;2022-08-01T07:16:32;101902.09;;;23.04;66.95
71770;BME280;59605;52.122;5.420;2022-08-01T07:18:59;101900.47;;;23.03;66.84
71770;BME280;59605;52.122;5.420;2022-08-01T07:21:25;101910.72;;;23.06;67.18
71770;BME280;59605;52.122;5.420;2022-08-01T07:24:08;101909.78;;;23.07;66.97
71770;BME280;59605;52.122;5.420;2022-08-01T07:26:44;101915.84;;;23.08;67.33
71770;BME280;59605;52.122;5.420;2022-08-01T07:29:20;101914.16;;;23.07;67.04
71770;BME280;59605;52.122;5.420;2022-08-01T07:31:46;101917.66;;;23.07;67.24
71770;BME280;59605;52.122;5.420;2022-08-01T07:34:12;101922.03;;;23.07;67.25
71770;BME280;59605;52.122;5.420;2022-08-01T07:36:39;101922.88;;;23.07;67.28
71770;BME280;59605;52.122;5.420;2022-08-01T07:39:05;101916.78;;;23.07;67.90
71770;BME280;59605;52.122;5.420;2022-08-01T07:41:32;101921.31;;;23.05;67.37
71770;BME280;59605;52.122;5.420;2022-08-01T07:44:18;101932.97;;;23.00;67.62
71770;BME280;59605;52.122;5.420;2022-08-01T07:46:44;101931.28;;;22.99;67.45
71770;BME280;59605;52.122;5.420;2022-08-01T07:49:11;101935.59;;;23.00;67.24
71770;BME280;59605;52.122;5.420;2022-08-01T07:51:37;101935.59;;;23.00;67.13
71770;BME280;59605;52.122;5.420;2022-08-01T07:54:04;101941.66;;;23.01;67.24
71770;BME280;59605;52.122;5.420;2022-08-01T07:56:30;101949.53;;;23.01;67.28
71770;BME280;59605;52.122;5.420;2022-08-01T07:58:57;101946.91;;;23.01;66.91
71770;BME280;59605;52.122;5.420;2022-08-01T08:01:23;101938.34;;;22.99;67.05
71770;BME280;59605;52.122;5.420;2022-08-01T08:03:50;101944.41;;;22.99;67.17
71770;BME280;59605;52.122;5.420;2022-08-01T08:06:16;101952.28;;;22.99;66.71
71770;BME280;59605;52.122;5.420;2022-08-01T08:08:43;101961.81;;;23.00;67.29
71770;BME280;59605;52.122;5.420;2022-08-01T08:11:09;101950.50;;;23.00;67.04
71770;BME280;59605;52.122;5.420;2022-08-01T08:13:36;101956.69;;;22.99;67.04
71770;BME280;59605;52.122;5.420;2022-08-01T08:16:02;101960.13;;;22.99;66.85
71770;BME280;59605;52.122;5.420;2022-08-01T08:18:29;101949.66;;;22.99;66.66
71770;BME280;59605;52.122;5.420;2022-08-01T08:20:55;101955.84;;;22.98;66.56
71770;BME280;59605;52.122;5.420;2022-08-01T08:23:21;101966.34;;;22.98;66.28
71770;BME280;59605;52.122;5.420;2022-08-01T08:26:12;101972.53;;;22.97;66.27
71770;BME280;59605;52.122;5.420;2022-08-01T08:28:38;101967.28;;;22.97;66.21
71770;BME280;59605;52.122;5.420;2022-08-01T08:31:06;101977.78;;;22.97;65.77
71770;BME280;59605;52.122;5.420;2022-08-01T08:33:50;101975.97;;;22.98;65.94
71770;BME280;59605;52.122;5.420;2022-08-01T08:36:17;101975.16;;;22.97;65.62
71770;BME280;59605;52.122;5.420;2022-08-01T08:38:43;101972.63;;;22.96;65.82
71770;BME280;59605;52.122;5.420;2022-08-01T08:41:11;101976.94;;;22.97;65.72
71770;BME280;59605;52.122;5.420;2022-08-01T08:43:41;101980.41;;;22.97;65.71
71770;BME280;59605;52.122;5.420;2022-08-01T08:46:08;101973.47;;;22.96;65.49
71770;BME280;59605;52.122;5.420;2022-08-01T08:48:36;101983.97;;;22.96;65.71
71770;BME280;59605;52.122;5.420;2022-08-01T08:51:03;101985.63;;;22.97;65.62
71770;BME280;59605;52.122;5.420;2022-08-01T08:53:30;101986.56;;;22.96;65.57
71770;BME280;59605;52.122;5.420;2022-08-01T08:56:00;101981.34;;;22.96;65.33
71770;BME280;59605;52.122;5.420;2022-08-01T08:58:28;101988.25;;;22.97;65.38
71770;BME280;59605;52.122;5.420;2022-08-01T09:00:57;101983.97;;;22.96;65.27
71770;BME280;59605;52.122;5.420;2022-08-01T09:03:24;101985.53;;;22.99;65.41
71770;BME280;59605;52.122;5.420;2022-08-01T09:05:50;101987.31;;;22.98;65.52
71770;BME280;59605;52.122;5.420;2022-08-01T09:08:16;101986.25;;;23.01;65.29
71770;BME280;59605;52.122;5.420;2022-08-01T09:10:43;101995.78;;;23.02;65.61
71770;BME280;59605;52.122;5.420;2022-08-01T09:13:12;102001.88;;;23.02;65.45
71770;BME280;59605;52.122;5.420;2022-08-01T09:18:06;102000.81;;;23.05;65.38
71770;BME280;59605;52.122;5.420;2022-08-01T09:20:33;102005.13;;;23.06;65.30
71770;BME280;59605;52.122;5.420;2022-08-01T09:23:02;102009.31;;;23.09;65.45
71770;BME280;59605;52.122;5.420;2022-08-01T09:25:29;102010.25;;;23.08;65.83
71770;BME280;59605;52.122;5.420;2022-08-01T09:28:13;102004.91;;;23.09;65.63
71770;BME280;59605;52.122;5.420;2022-08-01T09:30:41;102010.06;;;23.11;65.76
71770;BME280;59605;52.122;5.420;2022-08-01T09:33:08;102011.75;;;23.12;66.09
71770;BME280;59605;52.122;5.420;2022-08-01T09:35:57;102015.09;;;23.14;65.81
71770;BME280;59605;52.122;5.420;2022-08-01T09:38:25;102019.28;;;23.16;66.23
71770;BME280;59605;52.122;5.420;2022-08-01T09:40:57;102018.34;;;23.17;65.90
71770;BME280;59605;52.122;5.420;2022-08-01T09:43:26;102027.03;;;23.18;65.90
71770;BME280;59605;52.122;5.420;2022-08-01T09:45:54;102014.84;;;23.17;65.94
71770;BME280;59605;52.122;5.420;2022-08-01T09:48:24;102027.03;;;23.18;66.24
71770;BME280;59605;52.122;5.420;2022-08-01T09:50:56;102027.84;;;23.18;66.15
71770;BME280;59605;52.122;5.420;2022-08-01T09:53:48;102037.53;;;23.18;65.41
71770;BME280;59605;52.122;5.420;2022-08-01T09:56:18;102032.38;;;23.16;65.75
71770;BME280;59605;52.122;5.420;2022-08-01T09:58:54;102037.53;;;23.18;65.51
71770;BME280;59605;52.122;5.420;2022-08-01T10:01:27;102033.00;;;23.20;64.62
71770;BME280;59605;52.122;5.420;2022-08-01T10:04:05;102034.69;;;23.21;64.89
71770;BME280;59605;52.122;5.420;2022-08-01T10:06:36;102035.50;;;23.22;64.61
71770;BME280;59605;52.122;5.420;2022-08-01T10:09:03;102036.38;;;23.22;64.83
71770;BME280;59605;52.122;5.420;2022-08-01T10:11:31;102036.47;;;23.21;63.08
71770;BME280;59605;52.122;5.420;2022-08-01T10:14:02;102033.84;;;23.21;62.60
71770;BME280;59605;52.122;5.420;2022-08-01T10:16:30;102036.59;;;23.19;62.06
71770;BME280;59605;52.122;5.420;2022-08-01T10:18:56;102038.34;;;23.18;62.33
71770;BME280;59605;52.122;5.420;2022-08-01T10:21:23;102035.72;;;23.18;61.95
71770;BME280;59605;52.122;5.420;2022-08-01T10:24:12;102032.16;;;23.20;62.04
71770;BME280;59605;52.122;5.420;2022-08-01T10:26:47;102040.88;;;23.20;61.26
71770;BME280;59605;52.122;5.420;2022-08-01T10:29:15;102039.09;;;23.21;61.34
71770;BME280;59605;52.122;5.420;2022-08-01T10:32:05;102039.09;;;23.21;60.69
71770;BME280;59605;52.122;5.420;2022-08-01T10:34:33;102036.47;;;23.21;60.47
71770;BME280;59605;52.122;5.420;2022-08-01T10:37:01;102030.38;;;23.20;60.09
71770;BME280;59605;52.122;5.420;2022-08-01T10:39:31;102037.31;;;23.21;60.97
71770;BME280;59605;52.122;5.420;2022-08-01T10:41:58;102035.50;;;23.22;60.29
71770;BME280;59605;52.122;5.420;2022-08-01T10:44:27;102036.47;;;23.21;60.47
71770;BME280;59605;52.122;5.420;2022-08-01T10:47:04;102036.38;;;23.22;61.63
71770;BME280;59605;52.122;5.420;2022-08-01T10:49:41;102034.69;;;23.21;60.84
71770;BME280;59605;52.122;5.420;2022-08-01T10:52:19;102032.88;;;23.22;61.51
71770;BME280;59605;52.122;5.420;2022-08-01T10:54:47;102031.13;;;23.22;61.56
71770;BME280;59605;52.122;5.420;2022-08-01T10:57:18;102031.94;;;23.23;61.46
71770;BME280;59605;52.122;5.420;2022-08-01T10:59:50;102025.88;;;23.22;61.78
71770;BME280;59605;52.122;5.420;2022-08-01T11:02:31;102026.69;;;23.23;61.49
71770;BME280;59605;52.122;5.420;2022-08-01T11:05:12;102037.06;;;23.24;61.67
71770;BME280;59605;52.122;5.420;2022-08-01T11:07:52;102039.69;;;23.24;61.56
71770;BME280;59605;52.122;5.420;2022-08-01T11:10:23;102031.84;;;23.24;61.12
71770;BME280;59605;52.122;5.420;2022-08-01T11:12:51;102041.50;;;23.24;61.98
71770;BME280;59605;52.122;5.420;2022-08-01T11:15:20;102029.31;;;23.23;62.10
71770;BME280;59605;52.122;5.420;2022-08-01T11:17:57;102028.28;;;23.25;62.14
71770;BME280;59605;52.122;5.420;2022-08-01T11:20:30;102036.13;;;23.25;62.69
71770;BME280;59605;52.122;5.420;2022-08-01T11:28:23;102048.31;;;23.26;62.42
71770;BME280;59605;52.122;5.420;2022-08-01T11:38:45;102061.44;;;23.26;61.80
71770;BME280;59605;52.122;5.420;2022-08-01T11:41:28;102061.44;;;23.26;61.46
71770;BME280;59605;52.122;5.420;2022-08-01T11:52:07;102052.59;;;23.27;61.17
71770;BME280;59605;52.122;5.420;2022-08-01T11:54:39;102054.28;;;23.28;61.58
71770;BME280;59605;52.122;5.420;2022-08-01T11:57:10;102054.16;;;23.30;60.97
71770;BME280;59605;52.122;5.420;2022-08-01T11:59:39;102045.47;;;23.29;61.41
71770;BME280;59605;52.122;5.420;2022-08-01T12:02:24;102058.47;;;23.31;61.40
71770;BME280;59605;52.122;5.420;2022-08-01T12:04:57;102061.81;;;23.33;61.10
71770;BME280;59605;52.122;5.420;2022-08-01T12:07:27;102057.44;;;23.33;61.06
71770;BME280;59605;52.122;5.420;2022-08-01T12:09:58;102065.28;;;23.33;61.29
71770;BME280;59605;52.122;5.420;2022-08-01T12:12:25;102062.66;;;23.33;61.04
71770;BME280;59605;52.122;5.420;2022-08-01T12:14:57;102073.16;;;23.33;61.23
71770;BME280;59605;52.122;5.420;2022-08-01T12:17:36;102067.91;;;23.33;61.21
71770;BME280;59605;52.122;5.420;2022-08-01T12:20:09;102066.94;;;23.34;60.92
71770;BME280;59605;52.122;5.420;2022-08-01T12:22:36;102060.88;;;23.34;61.03
71770;BME280;59605;52.122;5.420;2022-08-01T12:25:13;102072.19;;;23.34;60.82
71770;BME280;59605;52.122;5.420;2022-08-01T12:27:42;102065.19;;;23.35;59.69
71770;BME280;59605;52.122;5.420;2022-08-01T12:30:11;102067.81;;;23.35;58.94
71770;BME280;59605;52.122;5.420;2022-08-01T12:32:39;102066.00;;;23.35;59.78
71770;BME280;59605;52.122;5.420;2022-08-01T12:35:09;102064.09;;;23.38;59.52
71770;BME280;59605;52.122;5.420;2022-08-01T12:37:44;102068.41;;;23.39;59.46
71770;BME280;59605;52.122;5.420;2022-08-01T12:42:42;102065.06;;;23.37;59.02
71770;BME280;59605;52.122;5.420;2022-08-01T12:45:10;102062.56;;;23.35;58.47
71770;BME280;59605;52.122;5.420;2022-08-01T12:47:38;102065.19;;;23.35;58.85
71770;BME280;59605;52.122;5.420;2022-08-01T12:50:12;102066.13;;;23.34;58.92
71770;BME280;59605;52.122;5.420;2022-08-01T12:52:40;102057.44;;;23.33;58.44
71770;BME280;59605;52.122;5.420;2022-08-01T12:55:18;102058.34;;;23.32;58.88
71770;BME280;59605;52.122;5.420;2022-08-01T12:57:50;102066.22;;;23.32;58.60
71770;BME280;59605;52.122;5.420;2022-08-01T13:00:29;102067.06;;;23.33;57.99
71770;BME280;59605;52.122;5.420;2022-08-01T13:03:05;102062.78;;;23.32;57.82
71770;BME280;59605;52.122;5.420;2022-08-01T13:08:23;102054.81;;;23.33;58.25
71770;BME280;59605;52.122;5.420;2022-08-01T13:10:50;102058.13;;;23.35;58.31
71770;BME280;59605;52.122;5.420;2022-08-01T13:13:18;102064.97;;;23.38;58.23
71770;BME280;59605;52.122;5.420;2022-08-01T13:16:03;102068.63;;;23.35;57.26
71770;BME280;59605;52.122;5.420;2022-08-01T13:18:32;102067.69;;;23.37;56.86
71770;BME280;59605;52.122;5.420;2022-08-01T13:21:16;102066.84;;;23.36;58.30
71770;BME280;59605;52.122;5.420;2022-08-01T13:24:11;102059.94;;;23.35;57.78
71770;BME280;59605;52.122;5.420;2022-08-01T13:26:54;102063.38;;;23.35;57.86
71770;BME280;59605;52.122;5.420;2022-08-01T13:29:37;102062.44;;;23.37;57.29
71770;BME280;59605;52.122;5.420;2022-08-01T13:32:20;102064.00;;;23.39;57.71
71770;BME280;59605;52.122;5.420;2022-08-01T13:35:03;102057.81;;;23.40;57.72
71770;BME280;59605;52.122;5.420;2022-08-01T13:37:31;102055.06;;;23.42;57.52
71770;BME280;59605;52.122;5.420;2022-08-01T13:39:57;102055.81;;;23.44;57.61
71770;BME280;59605;52.122;5.420;2022-08-01T13:42:24;102054.00;;;23.44;57.22